sensor_id;sensor_type;location;lat;lon;timestamp;pressure;altitude;pressure_sealevel;temperature;humidity
9889;BME280;4983;42.112;24.738;2022-08-30T00:00:29;99585.16;;;23.86;nan
9889;BME280;4983;42.112;24.738;2022-08-30T00:03:15;99569.09;;;23.77;nan
9889;BME280;4983;42.112;24.738;2022-08-30T00:05:44;99566.84;;;23.67;nan
9889;BME280;4983;42.112;24.738;2022-08-30T00:08:11;99571.00;;;23.76;nan
9889;BME280;4983;42.112;24.738;2022-08-30T00:10:39;99663.31;;;23.75;nan
9889;BME280;4983;42.112;24.738;2022-08-30T00:13:08;99571.22;;;23.75;nan
9889;BME280;4983;42.112;24.738;2022-08-30T00:15:36;99573.84;;;23.52;nan
9889;BME280;4983;42.112;24.738;2022-08-30T00:18:04;99572.38;;;23.49;nan
9889;BME280;4983;42.112;24.738;2022-08-30T00:20:32;99571.22;;;23.39;nan
9889;BME280;4983;42.112;24.738;2022-08-30T00:23:02;99577.88;;;23.31;nan
9889;BME280;4983;42.112;24.738;2022-08-30T00:25:30;99570.78;;;23.42;nan
9889;BME280;4983;42.112;24.738;2022-08-30T00:27:57;99572.75;;;23.53;nan
9889;BME280;4983;42.112;24.738;2022-08-30T00:30:24;99574.91;;;23.51;nan
9889;BME280;4983;42.112;24.738;2022-08-30T00:32:52;99568.47;;;23.39;nan
9889;BME280;4983;42.112;24.738;2022-08-30T00:35:21;99576.75;;;23.39;nan
9889;BME280;4983;42.112;24.738;2022-08-30T00:37:48;99570.63;;;23.37;nan
9889;BME280;4983;42.112;24.738;2022-08-30T00:40:17;99574.94;;;23.26;nan
9889;BME280;4983;42.112;24.738;2022-08-30T00:42:45;99576.97;;;23.37;nan
9889;BME280;4983;42.112;24.738;2022-08-30T00:45:15;99575.50;;;23.35;nan
9889;BME280;4983;42.112;24.738;2022-08-30T00:47:44;99576.22;;;23.48;nan
9889;BME280;4983;42.112;24.738;2022-08-30T00:50:13;99577.50;;;23.46;nan
9889;BME280;4983;42.112;24.738;2022-08-30T00:52:42;99581.13;;;23.46;nan
9889;BME280;4983;42.112;24.738;2022-08-30T00:55:10;99578.44;;;23.40;nan
9889;BME280;4983;42.112;24.738;2022-08-30T00:57:42;99580.28;;;23.46;nan
9889;BME280;4983;42.112;24.738;2022-08-30T01:00:12;99578.91;;;23.55;nan
9889;BME280;4983;42.112;24.738;2022-08-30T01:02:40;99586.13;;;23.38;nan
9889;BME280;4983;42.112;24.738;2022-08-30T01:05:09;99576.41;;;23.29;nan
9889;BME280;4983;42.112;24.738;2022-08-30T01:07:37;99575.50;;;23.35;nan
9889;BME280;4983;42.112;24.738;2022-08-30T01:10:06;99570.84;;;23.35;nan
9889;BME280;4983;42.112;24.738;2022-08-30T01:12:35;99575.50;;;23.35;nan
9889;BME280;4983;42.112;24.738;2022-08-30T01:15:06;99575.47;;;23.17;nan
9889;BME280;4983;42.112;24.738;2022-08-30T01:17:34;99605.16;;;22.97;nan
9889;BME280;4983;42.112;24.738;2022-08-30T01:20:04;99574.44;;;23.18;nan
9889;BME280;4983;42.112;24.738;2022-08-30T01:22:36;99573.97;;;23.14;nan
9889;BME280;4983;42.112;24.738;2022-08-30T01:25:09;99574.84;;;23.15;nan
9889;BME280;4983;42.112;24.738;2022-08-30T01:27:40;99568.19;;;22.98;nan
9889;BME280;4983;42.112;24.738;2022-08-30T01:30:09;99576.94;;;23.19;nan
9889;BME280;4983;42.112;24.738;2022-08-30T01:32:39;99570.94;;;22.98;nan
9889;BME280;4983;42.112;24.738;2022-08-30T01:35:08;99566.69;;;23.02;nan
9889;BME280;4983;42.112;24.738;2022-08-30T01:37:36;99566.91;;;23.00;nan
9889;BME280;4983;42.112;24.738;2022-08-30T01:40:07;99563.41;;;23.11;nan
9889;BME280;4983;42.112;24.738;2022-08-30T01:42:35;99563.84;;;23.08;nan
9889;BME280;4983;42.112;24.738;2022-08-30T01:45:02;99553.22;;;23.12;nan
9889;BME280;4983;42.112;24.738;2022-08-30T01:47:29;99553.81;;;22.89;nan
9889;BME280;4983;42.112;24.738;2022-08-30T01:49:56;99549.94;;;22.97;nan
9889;BME280;4983;42.112;24.738;2022-08-30T01:52:23;99553.59;;;22.91;nan
9889;BME280;4983;42.112;24.738;2022-08-30T01:54:52;99599.16;;;23.00;nan
9889;BME280;4983;42.112;24.738;2022-08-30T01:57:23;99595.72;;;22.80;nan
9889;BME280;4983;42.112;24.738;2022-08-30T01:59:51;99554.84;;;22.95;nan
9889;BME280;4983;42.112;24.738;2022-08-30T02:02:21;99551.53;;;22.86;nan
9889;BME280;4983;42.112;24.738;2022-08-30T02:04:50;99548.38;;;22.83;nan
9889;BME280;4983;42.112;24.738;2022-08-30T02:07:18;99550.72;;;23.04;nan
9889;BME280;4983;42.112;24.738;2022-08-30T02:09:46;99546.22;;;22.85;nan
9889;BME280;4983;42.112;24.738;2022-08-30T02:12:13;99548.69;;;22.93;nan
9889;BME280;4983;42.112;24.738;2022-08-30T02:14:42;99550.22;;;22.89;nan
9889;BME280;4983;42.112;24.738;2022-08-30T02:17:11;99550.84;;;22.91;nan
9889;BME280;4983;42.112;24.738;2022-08-30T02:19:39;99551.19;;;23.01;nan
9889;BME280;4983;42.112;24.738;2022-08-30T02:22:06;99559.78;;;23.11;nan
9889;BME280;4983;42.112;24.738;2022-08-30T02:24:33;99558.47;;;23.13;nan
9889;BME280;4983;42.112;24.738;2022-08-30T02:27:01;99568.19;;;22.98;nan
9889;BME280;4983;42.112;24.738;2022-08-30T02:29:28;99565.91;;;22.95;nan
9889;BME280;4983;42.112;24.738;2022-08-30T02:31:57;99563.91;;;23.02;nan
9889;BME280;4983;42.112;24.738;2022-08-30T02:34:24;99590.00;;;22.81;nan
9889;BME280;4983;42.112;24.738;2022-08-30T02:36:51;99553.31;;;22.99;nan
9889;BME280;4983;42.112;24.738;2022-08-30T02:39:19;99562.06;;;22.96;nan
9889;BME280;4983;42.112;24.738;2022-08-30T02:41:47;99568.22;;;23.16;nan
9889;BME280;4983;42.112;24.738;2022-08-30T02:44:14;99560.94;;;23.03;nan
9889;BME280;4983;42.112;24.738;2022-08-30T02:46:41;99567.78;;;22.94;nan
9889;BME280;4983;42.112;24.738;2022-08-30T02:49:11;99572.28;;;23.20;nan
9889;BME280;4983;42.112;24.738;2022-08-30T02:51:39;99566.66;;;23.26;nan
9889;BME280;4983;42.112;24.738;2022-08-30T02:54:06;99569.69;;;23.25;nan
9889;BME280;4983;42.112;24.738;2022-08-30T02:56:33;99570.22;;;23.09;nan
9889;BME280;4983;42.112;24.738;2022-08-30T02:59:00;99564.59;;;22.97;nan
9889;BME280;4983;42.112;24.738;2022-08-30T03:01:27;99566.47;;;23.03;nan
9889;BME280;4983;42.112;24.738;2022-08-30T03:03:55;99564.09;;;23.07;nan
9889;BME280;4983;42.112;24.738;2022-08-30T03:06:23;99566.69;;;23.02;nan
9889;BME280;4983;42.112;24.738;2022-08-30T03:08:50;99573.81;;;22.85;nan
9889;BME280;4983;42.112;24.738;2022-08-30T03:11:18;99564.94;;;22.83;nan
9889;BME280;4983;42.112;24.738;2022-08-30T03:13:47;99560.06;;;23.03;nan
9889;BME280;4983;42.112;24.738;2022-08-30T03:16:15;99562.66;;;22.98;nan
9889;BME280;4983;42.112;24.738;2022-08-30T03:18:42;99620.47;;;22.93;nan
9889;BME280;4983;42.112;24.738;2022-08-30T03:21:10;99567.91;;;22.81;nan
9889;BME280;4983;42.112;24.738;2022-08-30T03:23:39;99559.69;;;22.75;nan
9889;BME280;4983;42.112;24.738;2022-08-30T03:26:07;99569.81;;;22.81;nan
9889;BME280;4983;42.112;24.738;2022-08-30T03:28:35;99570.59;;;22.63;nan
9889;BME280;4983;42.112;24.738;2022-08-30T03:31:02;99576.13;;;22.63;nan
9889;BME280;4983;42.112;24.738;2022-08-30T03:33:28;99572.88;;;22.73;nan
9889;BME280;4983;42.112;24.738;2022-08-30T03:35:56;99569.31;;;22.90;nan
9889;BME280;4983;42.112;24.738;2022-08-30T03:38:22;99572.06;;;22.90;nan
9889;BME280;4983;42.112;24.738;2022-08-30T03:40:52;99571.75;;;22.80;nan
9889;BME280;4983;42.112;24.738;2022-08-30T03:43:20;99573.78;;;22.91;nan
9889;BME280;4983;42.112;24.738;2022-08-30T03:45:47;99578.25;;;22.61;nan
9889;BME280;4983;42.112;24.738;2022-08-30T03:48:14;99579.28;;;22.67;nan
9889;BME280;4983;42.112;24.738;2022-08-30T03:50:42;99573.94;;;22.72;nan
9889;BME280;4983;42.112;24.738;2022-08-30T03:53:10;99582.09;;;22.85;nan
9889;BME280;4983;42.112;24.738;2022-08-30T03:55:37;99580.03;;;22.80;nan
9889;BME280;4983;42.112;24.738;2022-08-30T03:58:05;99582.47;;;22.95;nan
9889;BME280;4983;42.112;24.738;2022-08-30T04:00:32;99586.44;;;22.99;nan
9889;BME280;4983;42.112;24.738;2022-08-30T04:03:00;99584.09;;;23.27;nan
9889;BME280;4983;42.112;24.738;2022-08-30T04:05:27;99696.22;;;23.34;nan
9889;BME280;4983;42.112;24.738;2022-08-30T04:07:54;99605.28;;;23.33;nan
9889;BME280;4983;42.112;24.738;2022-08-30T04:10:22;99591.38;;;23.21;nan
9889;BME280;4983;42.112;24.738;2022-08-30T04:12:49;99597.22;;;23.31;nan
9889;BME280;4983;42.112;24.738;2022-08-30T04:15:18;99599.81;;;23.26;nan
9889;BME280;4983;42.112;24.738;2022-08-30T04:17:45;99620.78;;;23.09;nan
9889;BME280;4983;42.112;24.738;2022-08-30T04:20:13;99599.38;;;23.29;nan
9889;BME280;4983;42.112;24.738;2022-08-30T04:22:41;99593.16;;;23.09;nan
9889;BME280;4983;42.112;24.738;2022-08-30T04:25:10;99606.56;;;23.30;nan
9889;BME280;4983;42.112;24.738;2022-08-30T04:27:38;99602.25;;;23.16;nan
9889;BME280;4983;42.112;24.738;2022-08-30T04:30:06;99600.06;;;23.25;nan
9889;BME280;4983;42.112;24.738;2022-08-30T04:32:35;99610.03;;;23.26;nan
9889;BME280;4983;42.112;24.738;2022-08-30T04:35:03;99604.00;;;23.35;nan
9889;BME280;4983;42.112;24.738;2022-08-30T04:37:30;99608.81;;;23.15;nan
9889;BME280;4983;42.112;24.738;2022-08-30T04:39:58;99614.41;;;23.09;nan
9889;BME280;4983;42.112;24.738;2022-08-30T04:42:26;99648.31;;;23.16;nan
9889;BME280;4983;42.112;24.738;2022-08-30T04:44:56;99614.25;;;23.28;nan
9889;BME280;4983;42.112;24.738;2022-08-30T04:47:23;99619.84;;;23.22;nan
9889;BME280;4983;42.112;24.738;2022-08-30T04:49:52;99615.84;;;23.18;nan
9889;BME280;4983;42.112;24.738;2022-08-30T04:52:20;99622.63;;;23.40;nan
9889;BME280;4983;42.112;24.738;2022-08-30T04:54:47;99623.44;;;23.22;nan
9889;BME280;4983;42.112;24.738;2022-08-30T04:57:14;99622.97;;;23.50;nan
9889;BME280;4983;42.112;24.738;2022-08-30T04:59:41;99624.78;;;23.38;nan
9889;BME280;4983;42.112;24.738;2022-08-30T05:02:08;99624.81;;;23.56;nan
9889;BME280;4983;42.112;24.738;2022-08-30T05:04:36;99629.44;;;23.62;nan
9889;BME280;4983;42.112;24.738;2022-08-30T05:07:24;99629.50;;;23.55;nan
9889;BME280;4983;42.112;24.738;2022-08-30T05:09:52;99628.13;;;23.64;nan
9889;BME280;4983;42.112;24.738;2022-08-30T05:12:19;99633.28;;;23.79;nan
9889;BME280;4983;42.112;24.738;2022-08-30T05:14:47;99634.53;;;23.83;nan
9889;BME280;4983;42.112;24.738;2022-08-30T05:17:14;99621.38;;;23.78;nan
9889;BME280;4983;42.112;24.738;2022-08-30T05:19:41;99618.91;;;23.95;nan
9889;BME280;4983;42.112;24.738;2022-08-30T05:22:08;99610.81;;;23.93;nan
9889;BME280;4983;42.112;24.738;2022-08-30T05:24:36;99621.41;;;23.96;nan
9889;BME280;4983;42.112;24.738;2022-08-30T05:27:03;99623.19;;;24.09;nan
9889;BME280;4983;42.112;24.738;2022-08-30T05:29:31;99623.72;;;24.17;nan
9889;BME280;4983;42.112;24.738;2022-08-30T05:31:58;99634.59;;;24.30;nan
9889;BME280;4983;42.112;24.738;2022-08-30T05:34:25;99627.69;;;24.39;nan
9889;BME280;4983;42.112;24.738;2022-08-30T05:36:52;99626.03;;;24.50;nan
9889;BME280;4983;42.112;24.738;2022-08-30T05:39:19;99642.56;;;24.56;nan
9889;BME280;4983;42.112;24.738;2022-08-30T05:41:48;99627.75;;;24.80;nan
9889;BME280;4983;42.112;24.738;2022-08-30T05:44:14;99630.03;;;24.83;nan
9889;BME280;4983;42.112;24.738;2022-08-30T05:46:41;99636.59;;;25.00;nan
9889;BME280;4983;42.112;24.738;2022-08-30T05:49:10;99628.53;;;25.10;nan
9889;BME280;4983;42.112;24.738;2022-08-30T05:51:38;99629.28;;;25.17;nan
9889;BME280;4983;42.112;24.738;2022-08-30T05:54:05;99643.88;;;25.24;nan
9889;BME280;4983;42.112;24.738;2022-08-30T05:56:34;99624.69;;;25.23;nan
9889;BME280;4983;42.112;24.738;2022-08-30T05:59:05;99634.16;;;25.33;nan
9889;BME280;4983;42.112;24.738;2022-08-30T06:01:35;99627.88;;;25.38;nan
9889;BME280;4983;42.112;24.738;2022-08-30T06:04:04;99654.50;;;25.39;nan
9889;BME280;4983;42.112;24.738;2022-08-30T06:06:33;99621.00;;;25.52;nan
9889;BME280;4983;42.112;24.738;2022-08-30T06:09:02;99625.59;;;25.69;nan
9889;BME280;4983;42.112;24.738;2022-08-30T06:11:30;99623.41;;;25.83;nan
9889;BME280;4983;42.112;24.738;2022-08-30T06:13:57;99627.75;;;25.90;nan
9889;BME280;4983;42.112;24.738;2022-08-30T06:16:27;99628.47;;;25.86;nan
9889;BME280;4983;42.112;24.738;2022-08-30T06:18:56;99630.28;;;25.92;nan
9889;BME280;4983;42.112;24.738;2022-08-30T06:21:26;99629.72;;;25.90;nan
9889;BME280;4983;42.112;24.738;2022-08-30T06:23:55;99624.00;;;26.08;nan
9889;BME280;4983;42.112;24.738;2022-08-30T06:26:22;99640.75;;;26.13;nan
9889;BME280;4983;42.112;24.738;2022-08-30T06:28:50;99631.56;;;26.24;nan
9889;BME280;4983;42.112;24.738;2022-08-30T06:31:18;99638.59;;;26.15;nan
9889;BME280;4983;42.112;24.738;2022-08-30T06:33:48;99629.38;;;26.26;nan
9889;BME280;4983;42.112;24.738;2022-08-30T06:36:17;99646.84;;;26.38;nan
9889;BME280;4983;42.112;24.738;2022-08-30T06:38:45;99633.94;;;26.32;nan
9889;BME280;4983;42.112;24.738;2022-08-30T06:41:15;99640.31;;;26.44;nan
9889;BME280;4983;42.112;24.738;2022-08-30T06:43:44;99642.81;;;26.57;nan
9889;BME280;4983;42.112;24.738;2022-08-30T06:46:12;99630.75;;;26.79;nan
9889;BME280;4983;42.112;24.738;2022-08-30T06:48:39;99642.63;;;26.75;nan
9889;BME280;4983;42.112;24.738;2022-08-30T06:51:08;99632.19;;;26.82;nan
9889;BME280;4983;42.112;24.738;2022-08-30T06:53:35;99626.16;;;26.85;nan
9889;BME280;4983;42.112;24.738;2022-08-30T06:56:05;99626.94;;;27.13;nan
9889;BME280;4983;42.112;24.738;2022-08-30T06:58:34;99630.03;;;27.28;nan
9889;BME280;4983;42.112;24.738;2022-08-30T07:01:02;99634.81;;;27.33;nan
9889;BME280;4983;42.112;24.738;2022-08-30T07:03:29;99627.13;;;27.40;nan
9889;BME280;4983;42.112;24.738;2022-08-30T07:05:57;99623.97;;;27.48;nan
9889;BME280;4983;42.112;24.738;2022-08-30T07:08:25;99617.59;;;27.69;nan
9889;BME280;4983;42.112;24.738;2022-08-30T07:10:53;99622.56;;;27.67;nan
9889;BME280;4983;42.112;24.738;2022-08-30T07:13:20;99623.41;;;27.67;nan
9889;BME280;4983;42.112;24.738;2022-08-30T07:15:50;99617.91;;;27.72;nan
9889;BME280;4983;42.112;24.738;2022-08-30T07:18:17;99625.34;;;27.83;nan
9889;BME280;4983;42.112;24.738;2022-08-30T07:21:09;99618.66;;;28.01;nan
9889;BME280;4983;42.112;24.738;2022-08-30T07:23:38;99623.75;;;27.87;nan
9889;BME280;4983;42.112;24.738;2022-08-30T07:26:07;99632.03;;;28.04;nan
9889;BME280;4983;42.112;24.738;2022-08-30T07:28:36;99622.16;;;28.13;nan
9889;BME280;4983;42.112;24.738;2022-08-30T07:31:04;99619.78;;;28.21;nan
9889;BME280;4983;42.112;24.738;2022-08-30T07:33:31;99629.34;;;28.30;nan
9889;BME280;4983;42.112;24.738;2022-08-30T07:35:58;99627.22;;;28.37;nan
9889;BME280;4983;42.112;24.738;2022-08-30T07:38:26;99627.81;;;28.61;nan
9889;BME280;4983;42.112;24.738;2022-08-30T07:40:54;99621.59;;;28.54;nan
9889;BME280;4983;42.112;24.738;2022-08-30T07:43:23;99627.50;;;28.57;nan
9889;BME280;4983;42.112;24.738;2022-08-30T07:45:50;99623.97;;;28.67;nan
9889;BME280;4983;42.112;24.738;2022-08-30T07:48:17;99631.03;;;28.53;nan
9889;BME280;4983;42.112;24.738;2022-08-30T07:50:45;99645.09;;;28.63;nan
9889;BME280;4983;42.112;24.738;2022-08-30T07:53:12;99637.28;;;28.86;nan
9889;BME280;4983;42.112;24.738;2022-08-30T07:55:39;99641.28;;;28.95;nan
9889;BME280;4983;42.112;24.738;2022-08-30T07:58:08;99645.25;;;28.99;nan
9889;BME280;4983;42.112;24.738;2022-08-30T08:00:35;99643.66;;;29.08;nan
9889;BME280;4983;42.112;24.738;2022-08-30T08:03:04;99635.44;;;29.23;nan
9889;BME280;4983;42.112;24.738;2022-08-30T08:05:36;99641.81;;;29.19;nan
9889;BME280;4983;42.112;24.738;2022-08-30T08:08:03;99638.78;;;29.25;nan
9889;BME280;4983;42.112;24.738;2022-08-30T08:10:30;99636.66;;;29.37;nan
9889;BME280;4983;42.112;24.738;2022-08-30T08:12:57;99632.41;;;29.56;nan
9889;BME280;4983;42.112;24.738;2022-08-30T08:15:26;99634.56;;;29.86;nan
9889;BME280;4983;42.112;24.738;2022-08-30T08:17:53;99633.72;;;29.85;nan
9889;BME280;4983;42.112;24.738;2022-08-30T08:20:21;99653.09;;;30.02;nan
9889;BME280;4983;42.112;24.738;2022-08-30T08:22:48;99631.22;;;30.30;nan
9889;BME280;4983;42.112;24.738;2022-08-30T08:25:15;99629.63;;;30.54;nan
9889;BME280;4983;42.112;24.738;2022-08-30T08:27:45;99635.56;;;30.68;nan
9889;BME280;4983;42.112;24.738;2022-08-30T08:30:12;99622.34;;;30.48;nan
9889;BME280;4983;42.112;24.738;2022-08-30T08:32:41;99628.00;;;30.63;nan
9889;BME280;4983;42.112;24.738;2022-08-30T08:35:08;99627.09;;;30.53;nan
9889;BME280;4983;42.112;24.738;2022-08-30T08:37:36;99625.56;;;30.77;nan
9889;BME280;4983;42.112;24.738;2022-08-30T08:40:06;99629.47;;;30.86;nan
9889;BME280;4983;42.112;24.738;2022-08-30T08:42:40;99624.44;;;30.83;nan
9889;BME280;4983;42.112;24.738;2022-08-30T08:45:16;99627.88;;;31.20;nan
9889;BME280;4983;42.112;24.738;2022-08-30T08:47:52;99623.34;;;30.99;nan
9889;BME280;4983;42.112;24.738;2022-08-30T08:50:22;99626.44;;;31.17;nan
9889;BME280;4983;42.112;24.738;2022-08-30T08:52:53;99617.53;;;31.20;nan
9889;BME280;4983;42.112;24.738;2022-08-30T08:55:41;99625.38;;;31.18;nan
9889;BME280;4983;42.112;24.738;2022-08-30T08:58:17;99617.78;;;31.09;nan
9889;BME280;4983;42.112;24.738;2022-08-30T09:00:46;99621.94;;;31.01;nan
9889;BME280;4983;42.112;24.738;2022-08-30T09:03:15;99620.34;;;31.50;nan
9889;BME280;4983;42.112;24.738;2022-08-30T09:05:45;99614.69;;;32.00;nan
9889;BME280;4983;42.112;24.738;2022-08-30T09:08:14;99612.47;;;31.82;nan
9889;BME280;4983;42.112;24.738;2022-08-30T09:10:48;99614.44;;;31.57;nan
9889;BME280;4983;42.112;24.738;2022-08-30T09:13:16;99609.94;;;32.01;nan
9889;BME280;4983;42.112;24.738;2022-08-30T09:15:43;99608.47;;;32.18;nan
9889;BME280;4983;42.112;24.738;2022-08-30T09:18:11;99609.22;;;32.44;nan
9889;BME280;4983;42.112;24.738;2022-08-30T09:20:42;99608.53;;;32.77;nan
9889;BME280;4983;42.112;24.738;2022-08-30T09:23:24;99604.75;;;32.48;nan
9889;BME280;4983;42.112;24.738;2022-08-30T09:25:55;99613.25;;;32.13;nan
9889;BME280;4983;42.112;24.738;2022-08-30T09:28:25;99612.38;;;32.22;nan
9889;BME280;4983;42.112;24.738;2022-08-30T09:31:02;99601.69;;;32.39;nan
9889;BME280;4983;42.112;24.738;2022-08-30T09:33:30;99604.88;;;32.08;nan
9889;BME280;4983;42.112;24.738;2022-08-30T09:36:12;99604.81;;;32.18;nan
9889;BME280;4983;42.112;24.738;2022-08-30T09:38:40;99595.06;;;32.69;nan
9889;BME280;4983;42.112;24.738;2022-08-30T09:41:26;99601.25;;;33.14;nan
9889;BME280;4983;42.112;24.738;2022-08-30T09:44:04;99597.25;;;33.20;nan
9889;BME280;4983;42.112;24.738;2022-08-30T09:46:32;99589.66;;;33.31;nan
9889;BME280;4983;42.112;24.738;2022-08-30T09:48:59;99594.88;;;33.42;nan
9889;BME280;4983;42.112;24.738;2022-08-30T09:51:45;99583.81;;;33.56;nan
9889;BME280;4983;42.112;24.738;2022-08-30T09:54:20;99585.34;;;33.38;nan
9889;BME280;4983;42.112;24.738;2022-08-30T09:56:56;99581.28;;;33.21;nan
9889;BME280;4983;42.112;24.738;2022-08-30T09:59:38;99580.34;;;33.35;nan
9889;BME280;4983;42.112;24.738;2022-08-30T10:02:24;99572.81;;;33.59;nan
9889;BME280;4983;42.112;24.738;2022-08-30T10:05:01;99578.03;;;33.42;nan
9889;BME280;4983;42.112;24.738;2022-08-30T10:07:34;99591.13;;;33.52;nan
9889;BME280;4983;42.112;24.738;2022-08-30T10:10:09;99566.91;;;33.61;nan
9889;BME280;4983;42.112;24.738;2022-08-30T10:12:45;99569.44;;;33.24;nan
9889;BME280;4983;42.112;24.738;2022-08-30T10:15:20;99560.72;;;33.59;nan
9889;BME280;4983;42.112;24.738;2022-08-30T10:17:56;99558.00;;;33.54;nan
9889;BME280;4983;42.112;24.738;2022-08-30T10:20:29;99555.97;;;33.59;nan
9889;BME280;4983;42.112;24.738;2022-08-30T10:23:05;99552.50;;;33.67;nan
9889;BME280;4983;42.112;24.738;2022-08-30T10:25:36;99553.16;;;33.88;nan
9889;BME280;4983;42.112;24.738;2022-08-30T10:28:08;99552.03;;;33.89;nan
9889;BME280;4983;42.112;24.738;2022-08-30T10:30:44;99546.53;;;33.74;nan
9889;BME280;4983;42.112;24.738;2022-08-30T10:33:17;99554.19;;;33.97;nan
9889;BME280;4983;42.112;24.738;2022-08-30T10:35:49;99548.66;;;33.87;nan
9889;BME280;4983;42.112;24.738;2022-08-30T10:38:25;99549.09;;;34.22;nan
9889;BME280;4983;42.112;24.738;2022-08-30T10:40:57;99552.91;;;34.55;nan
9889;BME280;4983;42.112;24.738;2022-08-30T10:43:46;99538.84;;;34.55;nan
9889;BME280;4983;42.112;24.738;2022-08-30T10:46:18;99536.41;;;34.67;nan
9889;BME280;4983;42.112;24.738;2022-08-30T10:48:47;99528.25;;;34.65;nan
9889;BME280;4983;42.112;24.738;2022-08-30T10:51:19;99526.97;;;34.58;nan
9889;BME280;4983;42.112;24.738;2022-08-30T10:53:54;99526.19;;;34.71;nan
9889;BME280;4983;42.112;24.738;2022-08-30T10:56:24;99536.97;;;34.27;nan
9889;BME280;4983;42.112;24.738;2022-08-30T10:58:55;99521.34;;;34.39;nan
9889;BME280;4983;42.112;24.738;2022-08-30T11:01:34;99521.47;;;34.06;nan
9889;BME280;4983;42.112;24.738;2022-08-30T11:04:22;99521.88;;;34.18;nan
9889;BME280;4983;42.112;24.738;2022-08-30T11:07:01;99518.28;;;34.78;nan
9889;BME280;4983;42.112;24.738;2022-08-30T11:09:59;99516.63;;;34.72;nan
9889;BME280;4983;42.112;24.738;2022-08-30T11:12:33;99509.03;;;34.12;nan
9889;BME280;4983;42.112;24.738;2022-08-30T11:15:13;99510.00;;;34.26;nan
9889;BME280;4983;42.112;24.738;2022-08-30T11:17:45;99510.97;;;34.35;nan
9889;BME280;4983;42.112;24.738;2022-08-30T11:20:30;99511.03;;;34.72;nan
9889;BME280;4983;42.112;24.738;2022-08-30T11:23:19;99512.97;;;35.08;nan
9889;BME280;4983;42.112;24.738;2022-08-30T11:25:50;99505.22;;;35.00;nan
9889;BME280;4983;42.112;24.738;2022-08-30T11:31:43;99501.19;;;34.88;nan
9889;BME280;4983;42.112;24.738;2022-08-30T11:34:11;99503.94;;;34.93;nan
9889;BME280;4983;42.112;24.738;2022-08-30T11:37:05;99490.34;;;35.32;nan
9889;BME280;4983;42.112;24.738;2022-08-30T11:40:03;99491.00;;;35.56;nan
9889;BME280;4983;42.112;24.738;2022-08-30T11:42:36;99483.03;;;35.90;nan
9889;BME280;4983;42.112;24.738;2022-08-30T11:54:16;99468.72;;;34.95;nan
9889;BME280;4983;42.112;24.738;2022-08-30T11:56:53;99477.09;;;35.00;nan
9889;BME280;4983;42.112;24.738;2022-08-30T11:59:29;99471.41;;;35.19;nan
9889;BME280;4983;42.112;24.738;2022-08-30T12:01:59;99462.56;;;35.84;nan
9889;BME280;4983;42.112;24.738;2022-08-30T12:04:35;99464.97;;;35.91;nan
9889;BME280;4983;42.112;24.738;2022-08-30T12:07:04;99458.88;;;35.97;nan
9889;BME280;4983;42.112;24.738;2022-08-30T12:10:06;99451.88;;;36.08;nan
9889;BME280;4983;42.112;24.738;2022-08-30T12:12:51;99487.56;;;36.40;nan
9889;BME280;4983;42.112;24.738;2022-08-30T12:21:13;99449.03;;;35.41;nan
9889;BME280;4983;42.112;24.738;2022-08-30T12:23:52;99482.19;;;35.89;nan
9889;BME280;4983;42.112;24.738;2022-08-30T12:26:30;99459.13;;;35.87;nan
9889;BME280;4983;42.112;24.738;2022-08-30T12:29:15;99451.81;;;35.73;nan
9889;BME280;4983;42.112;24.738;2022-08-30T12:31:46;99453.59;;;36.09;nan
9889;BME280;4983;42.112;24.738;2022-08-30T12:34:21;99477.84;;;35.65;nan
9889;BME280;4983;42.112;24.738;2022-08-30T12:36:53;99449.00;;;35.86;nan
9889;BME280;4983;42.112;24.738;2022-08-30T12:39:26;99446.06;;;35.64;nan
9889;BME280;4983;42.112;24.738;2022-08-30T12:41:55;99450.78;;;35.82;nan
9889;BME280;4983;42.112;24.738;2022-08-30T12:44:24;99455.53;;;35.55;nan
9889;BME280;4983;42.112;24.738;2022-08-30T12:46:55;99459.44;;;35.72;nan
9889;BME280;4983;42.112;24.738;2022-08-30T12:49:27;99472.38;;;35.87;nan
9889;BME280;4983;42.112;24.738;2022-08-30T12:51:55;99482.28;;;35.25;nan
9889;BME280;4983;42.112;24.738;2022-08-30T12:54:40;99497.84;;;34.30;nan
9889;BME280;4983;42.112;24.738;2022-08-30T12:57:09;99491.72;;;33.81;nan
9889;BME280;4983;42.112;24.738;2022-08-30T12:59:38;99485.25;;;33.24;nan
9889;BME280;4983;42.112;24.738;2022-08-30T13:02:09;99489.38;;;33.08;nan
9889;BME280;4983;42.112;24.738;2022-08-30T13:04:38;99489.16;;;32.61;nan
9889;BME280;4983;42.112;24.738;2022-08-30T13:07:06;99486.47;;;32.41;nan
9889;BME280;4983;42.112;24.738;2022-08-30T13:09:35;99473.44;;;32.16;nan
9889;BME280;4983;42.112;24.738;2022-08-30T13:12:06;99463.13;;;32.07;nan
9889;BME280;4983;42.112;24.738;2022-08-30T13:14:37;99466.22;;;32.05;nan
9889;BME280;4983;42.112;24.738;2022-08-30T13:17:07;99467.22;;;31.56;nan
9889;BME280;4983;42.112;24.738;2022-08-30T13:19:35;99453.84;;;31.43;nan
9889;BME280;4983;42.112;24.738;2022-08-30T13:22:04;99454.94;;;31.47;nan
9889;BME280;4983;42.112;24.738;2022-08-30T13:24:32;99448.84;;;31.25;nan
9889;BME280;4983;42.112;24.738;2022-08-30T13:27:03;99447.47;;;31.22;nan
9889;BME280;4983;42.112;24.738;2022-08-30T13:29:34;99440.44;;;31.15;nan
9889;BME280;4983;42.112;24.738;2022-08-30T13:32:02;99438.75;;;31.34;nan
9889;BME280;4983;42.112;24.738;2022-08-30T13:34:29;99441.28;;;31.20;nan
9889;BME280;4983;42.112;24.738;2022-08-30T13:37:01;99447.94;;;31.44;nan
9889;BME280;4983;42.112;24.738;2022-08-30T13:39:30;99460.41;;;31.92;nan
9889;BME280;4983;42.112;24.738;2022-08-30T13:41:57;99459.38;;;32.26;nan
9889;BME280;4983;42.112;24.738;2022-08-30T13:44:24;99460.91;;;31.99;nan
9889;BME280;4983;42.112;24.738;2022-08-30T13:46:53;99472.06;;;32.09;nan
9889;BME280;4983;42.112;24.738;2022-08-30T13:49:24;99459.19;;;32.13;nan
9889;BME280;4983;42.112;24.738;2022-08-30T13:51:52;99475.09;;;32.27;nan
9889;BME280;4983;42.112;24.738;2022-08-30T13:54:20;99485.50;;;32.12;nan
9889;BME280;4983;42.112;24.738;2022-08-30T13:56:49;99473.72;;;32.15;nan
9889;BME280;4983;42.112;24.738;2022-08-30T13:59:17;99466.78;;;32.02;nan
9889;BME280;4983;42.112;24.738;2022-08-30T14:01:44;99461.91;;;32.18;nan
9889;BME280;4983;42.112;24.738;2022-08-30T14:04:12;99459.06;;;32.33;nan
9889;BME280;4983;42.112;24.738;2022-08-30T14:06:40;99458.50;;;32.36;nan